createdAt,value
2023-04-17T00:01:44.811Z,98.62
2023-04-17T00:04:13.058Z,98.63
2023-04-17T00:06:43.191Z,98.68
2023-04-17T00:09:10.912Z,98.75
2023-04-17T00:11:39.930Z,98.77
2023-04-17T00:14:07.507Z,98.55
2023-04-17T00:16:35.059Z,98.26
2023-04-17T00:19:02.574Z,98.68
2023-04-17T00:21:31.940Z,99.04
2023-04-17T00:23:59.636Z,99.13
2023-04-17T00:26:27.148Z,99.42
2023-04-17T00:28:56.266Z,99.48
2023-04-17T00:31:23.841Z,99.26
2023-04-17T00:33:51.429Z,99.70
2023-04-17T00:36:18.936Z,99.51
2023-04-17T00:38:46.562Z,99.51
2023-04-17T00:41:14.091Z,99.56
2023-04-17T00:43:41.574Z,99.87
2023-04-17T00:46:11.063Z,99.62
2023-04-17T00:48:38.754Z,99.50
2023-04-17T00:51:06.783Z,100.00
2023-04-17T00:53:34.380Z,100.00
2023-04-17T00:56:02.524Z,99.70
2023-04-17T00:58:30.026Z,99.49
2023-04-17T01:00:57.910Z,99.36
2023-04-17T01:03:29.610Z,99.46
2023-04-17T01:05:57.303Z,100.00
2023-04-17T01:08:24.964Z,99.68
2023-04-17T01:10:52.927Z,99.49
2023-04-17T01:13:21.340Z,100.00
2023-04-17T01:15:50.112Z,99.98
2023-04-17T01:18:18.073Z,99.88
2023-04-17T01:20:47.535Z,99.27
2023-04-17T01:23:16.601Z,98.57
2023-04-17T01:25:47.191Z,98.56
2023-04-17T01:28:14.760Z,98.96
2023-04-17T01:30:42.323Z,99.35
2023-04-17T01:33:11.048Z,99.81
2023-04-17T01:35:38.556Z,99.67
2023-04-17T01:38:06.086Z,99.52
2023-04-17T01:40:33.577Z,99.60
2023-04-17T01:43:02.399Z,100.00
2023-04-17T01:45:29.952Z,99.78
2023-04-17T01:47:57.704Z,99.43
2023-04-17T01:50:25.234Z,99.64
2023-04-17T01:52:52.903Z,99.47
2023-04-17T01:55:20.430Z,99.30
2023-04-17T01:57:49.870Z,99.09
2023-04-17T02:00:19.645Z,99.17
2023-04-17T02:02:47.292Z,99.21
2023-04-17T02:05:14.916Z,99.19
2023-04-17T02:07:44.727Z,99.18
2023-04-17T02:10:12.469Z,99.45
2023-04-17T02:12:39.948Z,99.34
2023-04-17T02:15:08.664Z,99.67
2023-04-17T02:17:37.536Z,99.71
2023-04-17T02:20:07.400Z,99.71
2023-04-17T02:22:34.910Z,99.88
2023-04-17T02:25:02.484Z,99.90
2023-04-17T02:27:31.121Z,98.77
2023-04-17T02:29:58.621Z,99.08
2023-04-17T02:32:26.582Z,99.45
2023-04-17T02:34:56.155Z,99.53
2023-04-17T02:37:23.824Z,99.24
2023-04-17T02:39:53.280Z,99.12
2023-04-17T02:42:20.767Z,99.32
2023-04-17T02:44:48.280Z,99.21
2023-04-17T02:47:15.915Z,99.17
2023-04-17T02:49:43.402Z,98.86
2023-04-17T02:52:12.229Z,98.91
2023-04-17T02:54:39.724Z,98.79
2023-04-17T02:57:08.682Z,98.77
2023-04-17T02:59:36.196Z,98.79
2023-04-17T03:02:04.504Z,98.60
2023-04-17T03:04:34.467Z,98.74
2023-04-17T03:07:01.970Z,98.66
2023-04-17T03:09:30.958Z,98.46
2023-04-17T03:11:58.461Z,98.22
2023-04-17T03:14:25.982Z,98.48
2023-04-17T03:16:53.591Z,98.78
2023-04-17T03:19:21.432Z,97.85
2023-04-17T03:21:48.943Z,97.40
2023-04-17T03:24:16.527Z,97.36
2023-04-17T03:26:45.386Z,96.84
2023-04-17T03:29:18.276Z,96.96
2023-04-17T03:31:45.837Z,97.26
2023-04-17T03:34:13.488Z,97.10
2023-04-17T03:36:42.164Z,96.76
2023-04-17T03:39:10.223Z,97.32
2023-04-17T03:41:38.748Z,97.30
2023-04-17T03:44:08.746Z,97.36
2023-04-17T03:46:36.604Z,97.20
2023-04-17T03:49:04.132Z,97.14
2023-04-17T03:51:32.324Z,97.15
2023-04-17T03:54:07.771Z,96.81
2023-04-17T03:56:35.394Z,96.97
2023-04-17T03:59:04.143Z,97.10
2023-04-17T04:01:38.593Z,96.37
2023-04-17T04:04:14.779Z,96.65
2023-04-17T04:06:43.284Z,96.78
2023-04-17T04:09:15.131Z,96.99
2023-04-17T04:11:43.460Z,97.03
2023-04-17T04:14:11.330Z,96.89
2023-04-17T04:16:40.887Z,97.04
2023-04-17T04:19:12.044Z,96.72
2023-04-17T04:21:39.932Z,96.75
2023-04-17T04:24:13.223Z,96.78
2023-04-17T04:26:43.118Z,96.86
2023-04-17T04:29:11.787Z,96.88
2023-04-17T04:32:09.726Z,96.88
2023-04-17T04:34:42.082Z,96.97
2023-04-17T04:37:09.661Z,96.84
2023-04-17T04:39:40.368Z,96.96
2023-04-17T04:42:10.779Z,97.16
2023-04-17T04:44:50.257Z,97.18
2023-04-17T04:47:22.739Z,96.99
2023-04-17T04:49:51.069Z,96.97
2023-04-17T04:52:21.457Z,96.91
2023-04-17T04:54:50.663Z,96.61
2023-04-17T04:57:18.237Z,96.53
2023-04-17T04:59:48.000Z,96.66
2023-04-17T05:02:38.265Z,96.55
2023-04-17T05:05:10.953Z,96.49
2023-04-17T05:07:38.507Z,96.55
2023-04-17T05:10:10.314Z,96.31
2023-04-17T05:12:43.109Z,96.35
2023-04-17T05:15:12.472Z,96.43
2023-04-17T05:17:41.860Z,96.22
2023-04-17T05:20:10.496Z,96.25
2023-04-17T05:22:45.559Z,96.46
2023-04-17T05:25:14.221Z,96.29
2023-04-17T05:27:42.127Z,96.54
2023-04-17T05:30:13.065Z,96.58
2023-04-17T05:32:43.491Z,96.33
2023-04-17T05:35:31.292Z,96.73
2023-04-17T05:37:59.846Z,96.52
2023-04-17T05:40:27.358Z,96.66
2023-04-17T05:42:55.461Z,96.72
2023-04-17T05:45:25.446Z,96.72
2023-04-17T05:47:54.744Z,96.71
2023-04-17T05:50:22.289Z,96.32
2023-04-17T05:52:49.791Z,95.91
2023-04-17T05:55:20.083Z,96.19
2023-04-17T05:57:49.860Z,96.53
2023-04-17T06:00:17.840Z,96.58
2023-04-17T06:02:52.236Z,96.50
2023-04-17T06:05:31.291Z,96.39
2023-04-17T06:07:58.919Z,96.26
2023-04-17T06:10:26.967Z,96.19
2023-04-17T06:12:54.560Z,96.25
2023-04-17T06:15:22.600Z,96.12
2023-04-17T06:17:50.698Z,96.76
2023-04-17T06:20:18.920Z,96.48
2023-04-17T06:22:47.790Z,96.50
2023-04-17T06:25:16.975Z,96.72
2023-04-17T06:27:46.432Z,96.63
2023-04-17T06:30:14.442Z,96.78
2023-04-17T06:32:50.424Z,96.50
2023-04-17T06:35:20.243Z,96.58
2023-04-17T06:37:54.162Z,95.74
2023-04-17T06:40:21.889Z,95.72
2023-04-17T06:42:49.672Z,96.35
2023-04-17T06:45:21.815Z,96.74
2023-04-17T06:47:49.424Z,96.51
2023-04-17T06:50:18.388Z,96.46
2023-04-17T06:52:46.004Z,96.45
2023-04-17T06:55:14.809Z,96.64
2023-04-17T06:57:42.374Z,96.49
2023-04-17T07:00:11.175Z,96.53
2023-04-17T07:02:38.740Z,96.06
2023-04-17T07:05:07.424Z,96.50
2023-04-17T07:07:35.956Z,95.35
2023-04-17T07:10:03.955Z,95.86
2023-04-17T07:12:32.891Z,96.24
2023-04-17T07:15:00.755Z,95.84
2023-04-17T07:17:28.372Z,95.38
2023-04-17T07:19:56.059Z,96.12
2023-04-17T07:22:25.253Z,96.70
2023-04-17T07:24:54.193Z,96.37
2023-04-17T07:27:21.819Z,96.70
2023-04-17T07:29:54.827Z,95.85
2023-04-17T07:32:24.152Z,96.30
2023-04-17T07:34:52.065Z,95.59
2023-04-17T07:37:20.133Z,95.67
2023-04-17T07:39:49.999Z,95.85
2023-04-17T07:42:17.576Z,95.02
2023-04-17T07:44:45.103Z,96.12
2023-04-17T07:47:13.971Z,96.37
2023-04-17T07:49:41.623Z,96.37
2023-04-17T07:52:09.365Z,96.93
2023-04-17T07:54:36.893Z,97.14
2023-04-17T07:57:04.470Z,97.07
2023-04-17T07:59:31.980Z,96.63
2023-04-17T08:01:59.774Z,95.62
2023-04-17T08:04:28.976Z,96.06
2023-04-17T08:06:56.549Z,96.49
2023-04-17T08:09:24.073Z,96.89
2023-04-17T08:11:57.422Z,95.53
2023-04-17T08:14:25.576Z,96.01
2023-04-17T08:16:53.316Z,96.06
2023-04-17T08:19:20.894Z,94.94
2023-04-17T08:21:49.909Z,94.88
2023-04-17T08:24:19.707Z,95.19
2023-04-17T08:26:48.152Z,95.34
2023-04-17T08:29:15.855Z,94.24
2023-04-17T08:31:43.505Z,95.46
2023-04-17T08:34:14.989Z,94.91
2023-04-17T08:36:43.005Z,95.03
2023-04-17T08:39:12.354Z,94.41
2023-04-17T08:41:45.196Z,94.38
2023-04-17T08:44:12.772Z,94.42
2023-04-17T08:46:40.722Z,94.49
2023-04-17T08:49:08.353Z,95.53
2023-04-17T08:51:36.086Z,94.79
2023-04-17T08:54:03.603Z,94.88
2023-04-17T08:56:32.422Z,95.04
2023-04-17T08:58:59.899Z,94.92
2023-04-17T09:01:29.488Z,94.61
2023-04-17T09:03:58.063Z,93.85
2023-04-17T09:06:25.762Z,93.94
2023-04-17T09:08:57.796Z,94.53
2023-04-17T09:11:25.991Z,94.15
2023-04-17T09:13:55.005Z,94.08
2023-04-17T09:16:24.773Z,94.06
2023-04-17T09:18:52.392Z,94.39
2023-04-17T09:21:20.090Z,95.12
2023-04-17T09:23:49.817Z,95.25
2023-04-17T09:26:19.143Z,95.59
2023-04-17T09:29:04.998Z,95.34
2023-04-17T09:31:34.411Z,95.64
2023-04-17T09:34:03.224Z,94.99
2023-04-17T09:36:31.933Z,95.58
2023-04-17T09:39:00.981Z,95.55
2023-04-17T09:41:30.014Z,95.61
2023-04-17T09:44:01.971Z,95.40
2023-04-17T09:46:35.604Z,96.37
2023-04-17T09:49:04.172Z,95.68
2023-04-17T09:51:31.988Z,95.81
2023-04-17T09:54:00.509Z,95.60
2023-04-17T09:56:29.603Z,95.77
2023-04-17T09:58:59.054Z,95.58
2023-04-17T10:01:27.525Z,94.61
2023-04-17T10:03:57.009Z,95.01
2023-04-17T10:06:24.970Z,94.47
2023-04-17T10:08:52.510Z,94.73
2023-04-17T10:11:21.066Z,94.18
2023-04-17T10:13:54.023Z,93.95
2023-04-17T10:16:34.744Z,93.96
2023-04-17T10:19:29.455Z,93.63
2023-04-17T10:22:32.682Z,94.26
2023-04-17T10:25:18.379Z,94.81
2023-04-17T10:27:48.457Z,94.30
2023-04-17T10:30:16.317Z,94.23
2023-04-17T10:32:46.150Z,94.48
2023-04-17T10:35:36.582Z,93.71
2023-04-17T10:38:06.101Z,93.98
2023-04-17T10:40:35.036Z,93.89
2023-04-17T10:43:04.212Z,94.02
2023-04-17T10:45:54.434Z,93.32
2023-04-17T10:48:23.220Z,93.24
2023-04-17T10:50:52.075Z,93.04
2023-04-17T10:53:44.201Z,93.27
2023-04-17T10:56:12.673Z,93.28
2023-04-17T10:58:56.565Z,93.09
2023-04-17T11:01:27.582Z,93.59
2023-04-17T11:03:56.570Z,93.45
2023-04-17T11:06:28.056Z,93.24
2023-04-17T11:08:57.365Z,93.58
2023-04-17T11:11:35.302Z,93.65
2023-04-17T11:14:14.580Z,93.91
2023-04-17T11:16:43.523Z,93.73
2023-04-17T11:19:13.009Z,93.62
2023-04-17T11:21:43.506Z,93.84
2023-04-17T11:24:11.160Z,93.47
2023-04-17T11:26:43.284Z,93.34
2023-04-17T11:29:15.046Z,93.48
2023-04-17T11:31:42.606Z,94.58
2023-04-17T11:34:11.164Z,94.62
2023-04-17T11:36:38.691Z,94.79
2023-04-17T11:39:08.284Z,94.79
2023-04-17T11:41:39.382Z,94.20
2023-04-17T11:44:09.426Z,94.11
2023-04-17T11:46:36.989Z,94.16
2023-04-17T11:49:05.159Z,94.48
2023-04-17T11:51:33.161Z,93.76
2023-04-17T11:54:00.984Z,93.93
2023-04-17T11:56:30.157Z,94.15
2023-04-17T11:58:58.536Z,94.36
2023-04-17T12:01:27.440Z,94.39
2023-04-17T12:03:55.765Z,94.05
2023-04-17T12:06:24.200Z,93.30
2023-04-17T12:08:53.354Z,94.51
2023-04-17T12:11:26.034Z,93.06
2023-04-17T12:13:55.646Z,93.24
2023-04-17T12:16:24.645Z,93.15
2023-04-17T12:18:52.267Z,93.57
2023-04-17T12:21:20.412Z,92.50
2023-04-17T12:23:48.145Z,92.76
2023-04-17T12:26:15.643Z,92.52
2023-04-17T12:28:43.499Z,93.24
2023-04-17T12:31:12.757Z,93.57
2023-04-17T12:33:40.484Z,93.58
2023-04-17T12:36:08.977Z,93.06
2023-04-17T12:38:36.963Z,93.41
2023-04-17T12:41:04.481Z,93.74
2023-04-17T12:43:32.541Z,94.25
2023-04-17T12:46:00.264Z,94.23
2023-04-17T12:48:31.434Z,94.70
2023-04-17T12:51:00.215Z,94.27
2023-04-17T12:53:27.686Z,94.71
2023-04-17T12:55:55.279Z,93.36
2023-04-17T12:58:22.749Z,93.40
2023-04-17T13:00:50.349Z,92.85
2023-04-17T13:03:18.036Z,92.46
2023-04-17T13:05:46.986Z,91.69
2023-04-17T13:08:16.314Z,91.88
2023-04-17T13:10:43.839Z,91.44
2023-04-17T13:13:13.032Z,91.50
2023-04-17T13:15:40.694Z,92.06
2023-04-17T13:18:10.486Z,92.47
2023-04-17T13:20:38.223Z,92.59
2023-04-17T13:23:07.173Z,92.50
2023-04-17T13:25:34.822Z,92.74
2023-04-17T13:28:02.404Z,91.96
2023-04-17T13:30:29.925Z,92.39
2023-04-17T13:32:57.454Z,92.50
2023-04-17T13:35:25.084Z,91.88
2023-04-17T13:37:52.599Z,91.47
2023-04-17T13:40:21.424Z,91.90
2023-04-17T13:42:48.895Z,91.64
2023-04-17T13:45:16.417Z,91.41
2023-04-17T13:47:44.578Z,91.88
2023-04-17T13:50:12.135Z,91.34
2023-04-17T13:52:39.612Z,90.78
2023-04-17T13:55:11.796Z,91.28
2023-04-17T13:57:40.689Z,90.57
2023-04-17T14:00:10.620Z,90.88
2023-04-17T14:02:38.305Z,90.22
2023-04-17T14:05:06.818Z,90.89
2023-04-17T14:07:34.434Z,90.71
2023-04-17T14:10:01.939Z,90.80
2023-04-17T14:12:29.410Z,90.92
2023-04-17T14:14:58.389Z,91.30
2023-04-17T14:17:26.108Z,89.75
2023-04-17T14:19:53.898Z,90.28
2023-04-17T14:22:21.433Z,89.51
2023-04-17T14:24:48.918Z,88.78
2023-04-17T14:27:16.448Z,89.09
2023-04-17T14:29:43.942Z,88.53
2023-04-17T14:32:12.717Z,89.60
2023-04-17T14:34:40.215Z,89.43
2023-04-17T14:37:07.717Z,89.46
2023-04-17T14:39:35.250Z,88.92
2023-04-17T14:42:05.639Z,88.93
2023-04-17T14:44:33.123Z,89.30
2023-04-17T14:47:00.658Z,89.57
2023-04-17T14:49:29.894Z,89.93
2023-04-17T14:51:57.458Z,89.94
2023-04-17T14:54:25.005Z,89.80
2023-04-17T14:56:53.594Z,89.79
2023-04-17T14:59:21.197Z,88.99
2023-04-17T15:01:48.878Z,88.64
2023-04-17T15:04:16.986Z,88.66
2023-04-17T15:06:45.827Z,87.48
2023-04-17T15:09:13.749Z,87.55
2023-04-17T15:11:41.386Z,87.39
2023-04-17T15:14:08.860Z,87.85
2023-04-17T15:16:36.388Z,88.20
2023-04-17T15:19:03.936Z,89.02
2023-04-17T15:21:31.448Z,89.14
2023-04-17T15:24:00.318Z,89.95
2023-04-17T15:26:28.164Z,90.54
2023-04-17T15:28:55.689Z,90.32
2023-04-17T15:31:23.219Z,89.96
2023-04-17T15:33:50.730Z,89.92
2023-04-17T15:36:18.242Z,89.68
2023-04-17T15:38:45.826Z,89.83
2023-04-17T15:41:14.802Z,89.26
2023-04-17T15:43:42.322Z,88.43
2023-04-17T15:46:10.002Z,88.69
2023-04-17T15:48:37.531Z,88.31
2023-04-17T15:51:05.472Z,88.50
2023-04-17T15:53:33.358Z,88.83
2023-04-17T15:56:01.305Z,88.85
2023-04-17T15:58:30.243Z,88.00
2023-04-17T16:00:57.732Z,88.26
2023-04-17T16:03:25.337Z,88.43
2023-04-17T16:05:54.154Z,88.27
2023-04-17T16:08:21.685Z,88.23
2023-04-17T16:10:49.167Z,87.50
2023-04-17T16:13:16.873Z,88.03
2023-04-17T16:15:46.070Z,87.70
2023-04-17T16:18:13.556Z,87.73
2023-04-17T16:20:41.043Z,87.74
2023-04-17T16:23:08.573Z,88.09
2023-04-17T16:25:36.406Z,88.39
2023-04-17T16:28:03.972Z,88.78
2023-04-17T16:30:31.503Z,88.87
2023-04-17T16:33:00.341Z,89.01
2023-04-17T16:35:29.773Z,88.78
2023-04-17T16:37:57.303Z,88.98
2023-04-17T16:40:26.528Z,89.15
2023-04-17T16:42:54.522Z,89.23
2023-04-17T16:45:22.262Z,89.26
2023-04-17T16:47:49.810Z,88.73
2023-04-17T16:50:18.867Z,88.52
2023-04-17T16:52:46.346Z,88.76
2023-04-17T16:55:13.828Z,88.75
2023-04-17T16:57:43.700Z,88.89
2023-04-17T17:00:12.572Z,88.85
2023-04-17T17:02:40.188Z,88.95
2023-04-17T17:05:08.568Z,88.45
2023-04-17T17:07:37.402Z,88.11
2023-04-17T17:10:05.626Z,87.97
2023-04-17T17:12:33.151Z,87.73
2023-04-17T17:15:00.735Z,87.70
2023-04-17T17:17:28.219Z,87.67
2023-04-17T17:19:56.003Z,87.27
2023-04-17T17:22:23.500Z,87.33
2023-04-17T17:24:52.381Z,86.87
2023-04-17T17:27:19.846Z,86.30
2023-04-17T17:29:47.341Z,86.69
2023-04-17T17:32:16.385Z,86.90
2023-04-17T17:34:44.011Z,87.05
2023-04-17T17:37:11.828Z,86.97
2023-04-17T17:39:39.481Z,86.83
2023-04-17T17:42:09.376Z,85.82
2023-04-17T17:44:37.739Z,85.51
2023-04-17T17:47:07.524Z,85.65
2023-04-17T17:49:35.528Z,85.60
2023-04-17T17:52:03.051Z,85.42
2023-04-17T17:54:30.551Z,85.49
2023-04-17T17:56:58.070Z,85.49
2023-04-17T17:59:26.881Z,85.78
2023-04-17T18:01:54.477Z,85.53
2023-04-17T18:04:22.395Z,85.88
2023-04-17T18:06:50.093Z,85.73
2023-04-17T18:09:17.556Z,85.84
2023-04-17T18:11:45.179Z,85.61
2023-04-17T18:14:12.807Z,86.08
2023-04-17T18:16:42.906Z,85.73
2023-04-17T18:19:10.520Z,85.73
2023-04-17T18:21:38.012Z,86.01
2023-04-17T18:24:06.690Z,85.93
2023-04-17T18:26:34.363Z,85.82
2023-04-17T18:29:01.951Z,85.75
2023-04-17T18:31:29.661Z,85.06
2023-04-17T18:34:02.128Z,84.81
2023-04-17T18:36:30.762Z,85.00
2023-04-17T18:38:58.312Z,85.14
2023-04-17T18:41:26.887Z,84.98
2023-04-17T18:43:54.366Z,84.69
2023-04-17T18:46:22.862Z,84.99
2023-04-17T18:48:50.349Z,85.02
2023-04-17T18:51:19.517Z,84.88
2023-04-17T18:53:48.242Z,84.64
2023-04-17T18:56:15.892Z,84.76
2023-04-17T18:58:43.710Z,84.19
2023-04-17T19:01:11.297Z,84.48
2023-04-17T19:03:38.936Z,84.45
2023-04-17T19:06:07.598Z,84.23
2023-04-17T19:08:36.429Z,84.13
2023-04-17T19:11:04.290Z,84.16
2023-04-17T19:13:32.028Z,84.52
2023-04-17T19:15:59.551Z,84.13
2023-04-17T19:18:27.108Z,84.18
2023-04-17T19:20:54.616Z,84.16
2023-04-17T19:23:22.127Z,84.38
2023-04-17T19:25:54.812Z,84.38
2023-04-17T19:28:22.691Z,84.69
2023-04-17T19:30:50.439Z,84.59
2023-04-17T19:33:18.627Z,84.77
2023-04-17T19:35:46.214Z,84.76
2023-04-17T19:38:16.220Z,85.00
2023-04-17T19:40:47.612Z,84.88
2023-04-17T19:43:16.442Z,85.07
2023-04-17T19:45:44.080Z,85.08
2023-04-17T19:48:11.630Z,85.24
2023-04-17T19:50:39.120Z,85.21
2023-04-17T19:53:06.911Z,85.53
2023-04-17T19:55:34.740Z,85.29
2023-04-17T19:58:02.245Z,85.61
2023-04-17T20:00:31.072Z,85.60
2023-04-17T20:02:58.666Z,85.85
2023-04-17T20:05:27.360Z,85.99
2023-04-17T20:07:55.418Z,85.96
2023-04-17T20:10:23.121Z,86.08
2023-04-17T20:12:50.645Z,85.60
2023-04-17T20:15:19.792Z,85.40
2023-04-17T20:17:48.661Z,85.38
2023-04-17T20:20:16.282Z,85.42
2023-04-17T20:22:43.779Z,84.79
2023-04-17T20:25:11.301Z,84.56
2023-04-17T20:27:38.843Z,84.68
2023-04-17T20:30:07.347Z,85.11
2023-04-17T20:32:34.853Z,85.16
2023-04-17T20:35:04.379Z,85.33
2023-04-17T20:37:31.895Z,85.30
2023-04-17T20:39:59.368Z,85.37
2023-04-17T20:42:26.858Z,85.63
2023-04-17T20:44:55.216Z,85.70
2023-04-17T20:47:22.755Z,85.75
2023-04-17T20:49:50.236Z,86.13
2023-04-17T20:52:19.063Z,86.32
2023-04-17T20:54:46.552Z,86.23
2023-04-17T20:57:14.103Z,86.24
2023-04-17T20:59:41.581Z,86.40
2023-04-17T21:02:09.290Z,86.52
2023-04-17T21:04:37.010Z,86.45
2023-04-17T21:07:04.666Z,86.40
2023-04-17T21:09:34.318Z,86.56
2023-04-17T21:12:02.446Z,86.57
2023-04-17T21:14:30.426Z,86.66
2023-04-17T21:16:58.537Z,86.88
2023-04-17T21:19:27.233Z,86.89
2023-04-17T21:21:55.162Z,87.02
2023-04-17T21:24:22.859Z,86.79
2023-04-17T21:26:53.280Z,87.25
2023-04-17T21:29:20.846Z,87.78
2023-04-17T21:31:48.373Z,87.67
2023-04-17T21:34:15.962Z,87.69
2023-04-17T21:36:43.518Z,87.88
2023-04-17T21:39:11.198Z,87.93
2023-04-17T21:41:38.773Z,88.65
2023-04-17T21:44:07.600Z,88.31
2023-04-17T21:46:35.096Z,88.50
2023-04-17T21:49:02.648Z,88.59
2023-04-17T21:51:30.109Z,89.21
2023-04-17T21:53:57.579Z,88.72
2023-04-17T21:56:25.148Z,89.72
2023-04-17T21:58:52.644Z,89.32
2023-04-17T22:01:21.501Z,89.33
2023-04-17T22:03:49.029Z,89.36
2023-04-17T22:06:16.576Z,89.36
2023-04-17T22:08:44.265Z,89.98
2023-04-17T22:11:11.788Z,88.53
2023-04-17T22:13:39.274Z,87.71
2023-04-17T22:16:07.389Z,87.58
2023-04-17T22:18:36.240Z,88.18
2023-04-17T22:21:04.149Z,88.30
2023-04-17T22:23:31.852Z,89.14
2023-04-17T22:25:59.366Z,88.87
2023-04-17T22:28:29.790Z,88.91
2023-04-17T22:30:57.421Z,89.31
2023-04-17T22:33:26.066Z,90.11
2023-04-17T22:35:54.912Z,90.36
2023-04-17T22:38:22.495Z,90.60
2023-04-17T22:40:49.991Z,91.28
2023-04-17T22:43:17.546Z,91.23
2023-04-17T22:45:45.048Z,91.59
2023-04-17T22:48:12.578Z,91.49
2023-04-17T22:50:40.070Z,90.74
2023-04-17T22:53:09.163Z,90.28
2023-04-17T22:55:37.139Z,90.11
2023-04-17T22:58:07.517Z,90.21
2023-04-17T23:00:35.138Z,89.97
2023-04-17T23:03:02.756Z,90.03
2023-04-17T23:05:30.365Z,89.79
2023-04-17T23:07:57.854Z,90.01
2023-04-17T23:10:26.718Z,90.94
2023-04-17T23:12:54.228Z,90.95
2023-04-17T23:15:22.034Z,91.11
2023-04-17T23:17:49.543Z,90.99
2023-04-17T23:20:17.390Z,90.95
2023-04-17T23:22:44.924Z,91.15
2023-04-17T23:25:12.507Z,91.18
2023-04-17T23:27:41.392Z,91.36
2023-04-17T23:30:09.630Z,91.39
2023-04-17T23:32:37.164Z,91.16
2023-04-17T23:35:05.227Z,90.87
2023-04-17T23:37:32.727Z,91.07
2023-04-17T23:40:01.249Z,91.03
2023-04-17T23:42:28.719Z,91.26
2023-04-17T23:44:57.847Z,91.04
2023-04-17T23:47:25.385Z,91.09
2023-04-17T23:49:52.902Z,91.70
2023-04-17T23:52:20.373Z,91.64
2023-04-17T23:54:47.991Z,91.50
2023-04-17T23:57:15.555Z,91.30
2023-04-17T23:59:43.101Z,91.36
